createdAt,value
2022-09-22T00:02:56.272Z,4.026
2022-09-22T00:08:08.067Z,4.026
2022-09-22T00:18:31.983Z,4.026
2022-09-22T00:23:43.812Z,4.0211
2022-09-22T00:28:55.600Z,4.0211
2022-09-22T00:34:07.582Z,4.026
2022-09-22T00:44:31.158Z,4.026
2022-09-22T00:49:43.184Z,4.026
2022-09-22T00:54:54.968Z,4.026
2022-09-22T01:00:06.937Z,4.0211
2022-09-22T01:15:42.087Z,4.026
2022-09-22T01:20:53.597Z,4.0211
2022-09-22T01:26:05.063Z,4.0211
2022-09-22T01:31:16.888Z,4.0211
2022-09-22T01:36:28.449Z,4.0211
2022-09-22T01:41:39.875Z,4.0211
2022-09-22T01:46:51.800Z,4.0211
2022-09-22T01:52:03.445Z,4.0211
2022-09-22T01:57:14.924Z,4.0162
2022-09-22T02:02:27.401Z,4.0162
2022-09-22T02:07:39.105Z,4.0211
2022-09-22T02:12:50.499Z,4.0162
2022-09-22T02:18:02.105Z,4.0162
2022-09-22T02:23:13.834Z,4.0162
2022-09-22T02:33:39.199Z,4.0162
2022-09-22T02:38:50.197Z,4.0162
2022-09-22T02:44:01.716Z,4.0162
2022-09-22T02:49:13.430Z,4.0162
2022-09-22T02:59:34.459Z,4.0162
2022-09-22T03:04:46.249Z,4.0162
2022-09-22T03:09:57.692Z,4.0162
2022-09-22T03:15:09.495Z,4.0114
2022-09-22T03:25:32.480Z,4.0114
2022-09-22T03:30:44.435Z,4.0114
2022-09-22T03:35:56.086Z,4.0114
2022-09-22T03:41:07.602Z,4.0114
2022-09-22T03:51:31.235Z,4.0114
2022-09-22T03:56:42.905Z,4.0114
2022-09-22T04:01:59.494Z,4.0114
2022-09-22T04:07:11.434Z,4.0114
2022-09-22T04:17:34.653Z,4.0114
2022-09-22T04:22:46.295Z,4.0114
2022-09-22T04:28:03.490Z,4.0114
2022-09-22T04:38:29.533Z,4.0114
2022-09-22T04:43:41.182Z,4.0114
2022-09-22T04:48:54.487Z,4.0114
2022-09-22T04:54:06.274Z,4.0114
2022-09-22T05:04:29.476Z,4.0065
2022-09-22T05:09:41.033Z,4.0114
2022-09-22T05:14:52.612Z,4.0114
2022-09-22T05:20:04.497Z,4.0065
2022-09-22T05:25:16.265Z,4.0065
2022-09-22T05:35:39.775Z,4.0065
2022-09-22T05:40:51.704Z,4.0065
2022-09-22T05:46:03.723Z,4.0114
2022-09-22T05:51:15.195Z,4.0114
2022-09-22T05:56:26.851Z,4.0065
2022-09-22T06:01:38.682Z,4.0065
2022-09-22T06:06:50.585Z,4.0065
2022-09-22T06:12:06.113Z,4.0065
2022-09-22T06:17:16.918Z,4.0114
2022-09-22T06:22:29.076Z,4.0065
2022-09-22T06:27:41.021Z,4.0065
2022-09-22T06:32:52.903Z,4.0065
2022-09-22T06:38:04.696Z,4.0065
2022-09-22T06:43:16.501Z,4.0065
2022-09-22T06:53:40.274Z,4.0065
2022-09-22T06:59:11.794Z,4.0065
2022-09-22T07:09:31.825Z,4.0065
2022-09-22T07:14:43.763Z,4.0065
2022-09-22T07:19:55.785Z,4.0065
2022-09-22T07:25:35.487Z,4.0065
2022-09-22T07:30:44.022Z,4.0065
2022-09-22T07:35:55.652Z,4.0065
2022-09-22T07:41:07.688Z,4.0065
2022-09-22T07:56:43.545Z,4.0065
2022-09-22T08:01:56.183Z,4.0065
2022-09-22T08:07:07.964Z,4.0065
2022-09-22T08:17:34.275Z,4.0065
2022-09-22T08:22:45.841Z,4.0065
2022-09-22T08:27:57.882Z,4.0065
2022-09-22T08:33:09.907Z,4.0065
2022-09-22T08:43:33.930Z,4.0065
2022-09-22T08:48:45.967Z,4.0065
2022-09-22T08:54:11.167Z,4.0114
2022-09-22T09:04:32.706Z,4.0065
2022-09-22T09:09:45.175Z,4.0114
2022-09-22T09:14:57.508Z,4.0065
2022-09-22T09:20:09.614Z,4.0065
2022-09-22T09:25:28.427Z,4.0065
2022-09-22T09:30:41.869Z,4.0065
2022-09-22T09:35:54.275Z,4.0065
2022-09-22T09:41:06.200Z,4.0114
2022-09-22T09:51:30.735Z,4.0065
2022-09-22T09:56:43.785Z,4.0065
2022-09-22T10:01:56.062Z,4.0065
2022-09-22T10:07:08.152Z,4.0065
2022-09-22T10:17:32.254Z,4.0114
2022-09-22T10:22:44.203Z,4.0065
2022-09-22T10:27:56.443Z,4.0065
2022-09-22T10:33:09.481Z,4.0065
2022-09-22T10:43:33.535Z,4.0065
2022-09-22T10:48:51.195Z,4.0114
2022-09-22T10:54:06.033Z,4.0162
2022-09-22T11:04:35.232Z,4.0065
2022-09-22T11:09:49.120Z,4.0114
2022-09-22T11:15:01.776Z,4.0162
2022-09-22T11:20:16.081Z,4.1041
2022-09-22T11:30:44.549Z,4.1285
2022-09-22T11:35:59.003Z,4.1285
2022-09-22T11:51:35.613Z,4.1626
2022-09-22T11:56:48.556Z,4.1724
2022-09-22T12:07:12.761Z,4.2212
2022-09-22T12:22:45.121Z,4.1187
2022-09-22T12:27:57.305Z,4.1773
2022-09-22T12:33:10.518Z,4.1626
2022-09-22T12:48:46.245Z,4.1285
2022-09-22T12:53:59.692Z,4.1724
2022-09-22T13:09:34.898Z,4.1724
2022-09-22T13:40:39.987Z,4.1431
2022-09-22T13:45:52.549Z,4.1382
2022-09-22T13:51:04.790Z,4.1334
2022-09-22T14:11:48.053Z,4.1334
2022-09-22T14:32:32.145Z,4.1626
2022-09-22T14:37:44.594Z,4.1626
2022-09-22T14:42:56.838Z,4.1773
2022-09-22T14:48:09.048Z,4.1773
2022-09-22T14:58:41.637Z,4.1919
2022-09-22T15:03:57.629Z,4.1968
2022-09-22T15:19:32.024Z,4.1822
2022-09-22T15:24:44.338Z,4.1773
2022-09-22T15:29:56.505Z,4.1724
2022-09-22T15:35:08.619Z,4.1675
2022-09-22T15:45:33.713Z,4.1626
2022-09-22T15:55:58.246Z,4.1626
2022-09-22T16:01:10.430Z,4.148
2022-09-22T16:16:47.494Z,4.1382
2022-09-22T16:27:09.503Z,4.1334
2022-09-22T16:37:32.585Z,4.1431
2022-09-22T16:42:44.521Z,4.1382
2022-09-22T16:47:56.562Z,4.1334
2022-09-22T17:03:31.661Z,4.1285
2022-09-22T17:13:53.554Z,4.1236
2022-09-22T17:19:06.099Z,4.1236
2022-09-22T17:34:42.997Z,4.1187
2022-09-22T17:39:54.967Z,4.1138
2022-09-22T17:45:07.763Z,4.109
2022-09-22T17:50:19.844Z,4.1187
2022-09-22T17:55:31.974Z,4.109
2022-09-22T18:00:44.504Z,4.109
2022-09-22T18:05:56.827Z,4.1041
2022-09-22T18:11:08.794Z,4.1041
2022-09-22T18:16:21.298Z,4.1041
2022-09-22T18:21:33.249Z,4.0992
2022-09-22T18:26:45.659Z,4.0992
2022-09-22T18:31:57.800Z,4.0992
2022-09-22T18:37:10.476Z,4.0992
2022-09-22T18:52:45.525Z,4.0894
2022-09-22T18:57:57.472Z,4.0894
2022-09-22T19:03:10.572Z,4.0894
2022-09-22T19:13:41.438Z,4.0846
2022-09-22T19:19:04.634Z,4.0846
2022-09-22T19:24:16.852Z,4.0797
2022-09-22T19:29:29.339Z,4.0797
2022-09-22T19:34:41.068Z,4.0797
2022-09-22T19:39:53.203Z,4.0797
2022-09-22T19:45:05.371Z,4.0797
2022-09-22T19:50:17.442Z,4.0797
2022-09-22T20:00:41.865Z,4.0748
2022-09-22T20:05:57.793Z,4.0797
2022-09-22T20:11:28.225Z,4.0748
2022-09-22T20:21:49.323Z,4.0748
2022-09-22T20:27:02.227Z,4.0699
2022-09-22T20:32:14.811Z,4.0699
2022-09-22T20:42:39.714Z,4.065
2022-09-22T20:47:52.083Z,4.065
2022-09-22T20:53:04.383Z,4.0699
2022-09-22T21:03:30.655Z,4.065
2022-09-22T21:08:42.812Z,4.065
2022-09-22T21:13:55.109Z,4.0748
2022-09-22T21:19:08.301Z,4.065
2022-09-22T21:34:44.131Z,4.0699
2022-09-22T21:39:56.458Z,4.0602
2022-09-22T21:45:08.625Z,4.0602
2022-09-22T21:50:20.779Z,4.0602
2022-09-22T21:55:32.573Z,4.0553
2022-09-22T22:00:53.664Z,4.0602
2022-09-22T22:06:03.542Z,4.0553
2022-09-22T22:11:15.504Z,4.065
2022-09-22T22:16:28.015Z,4.0553
2022-09-22T22:21:39.800Z,4.0553
2022-09-22T22:26:51.843Z,4.0553
2022-09-22T22:32:04.322Z,4.0553
2022-09-22T22:37:16.247Z,4.0602
2022-09-22T22:42:28.371Z,4.0553
2022-09-22T22:47:40.773Z,4.0553
2022-09-22T22:52:53.065Z,4.0553
2022-09-22T22:58:05.258Z,4.0553
2022-09-22T23:03:17.353Z,4.0504
2022-09-22T23:08:29.371Z,4.0504
2022-09-22T23:13:41.448Z,4.0504
2022-09-22T23:18:54.807Z,4.0504
2022-09-22T23:24:06.377Z,4.0504
2022-09-22T23:39:42.250Z,4.0504
2022-09-22T23:44:54.038Z,4.0455
2022-09-22T23:50:06.424Z,4.0504
